sensor_id;sensor_type;location;lat;lon;timestamp;temperature;humidity
9760;DHT22;4919;48.792;9.202;2023-01-19T00:00:57;-2.30;99.90
9760;DHT22;4919;48.792;9.202;2023-01-19T00:03:43;-2.30;99.90
9760;DHT22;4919;48.792;9.202;2023-01-19T00:06:28;-2.30;99.90
9760;DHT22;4919;48.792;9.202;2023-01-19T00:09:12;-2.30;99.90
9760;DHT22;4919;48.792;9.202;2023-01-19T00:11:58;-2.40;99.90
9760;DHT22;4919;48.792;9.202;2023-01-19T00:14:43;-2.40;99.90
9760;DHT22;4919;48.792;9.202;2023-01-19T00:17:28;-2.40;99.90
9760;DHT22;4919;48.792;9.202;2023-01-19T00:20:13;-2.40;99.90
9760;DHT22;4919;48.792;9.202;2023-01-19T00:22:58;-2.40;99.90
9760;DHT22;4919;48.792;9.202;2023-01-19T00:25:43;-2.40;99.90
9760;DHT22;4919;48.792;9.202;2023-01-19T00:28:28;-2.40;99.90
9760;DHT22;4919;48.792;9.202;2023-01-19T00:31:12;-2.40;99.90
9760;DHT22;4919;48.792;9.202;2023-01-19T00:33:58;-2.40;99.90
9760;DHT22;4919;48.792;9.202;2023-01-19T00:36:43;-2.40;99.90
9760;DHT22;4919;48.792;9.202;2023-01-19T00:39:28;-2.40;99.90
9760;DHT22;4919;48.792;9.202;2023-01-19T00:42:12;-2.50;99.90
9760;DHT22;4919;48.792;9.202;2023-01-19T00:44:57;-2.40;99.90
9760;DHT22;4919;48.792;9.202;2023-01-19T00:47:42;-2.40;99.90
9760;DHT22;4919;48.792;9.202;2023-01-19T00:50:29;-2.50;99.90
9760;DHT22;4919;48.792;9.202;2023-01-19T00:53:14;-2.50;99.90
9760;DHT22;4919;48.792;9.202;2023-01-19T00:55:59;-2.50;99.90
9760;DHT22;4919;48.792;9.202;2023-01-19T00:58:44;-2.50;99.90
9760;DHT22;4919;48.792;9.202;2023-01-19T01:01:29;-2.50;99.90
9760;DHT22;4919;48.792;9.202;2023-01-19T01:04:14;-2.50;99.90
9760;DHT22;4919;48.792;9.202;2023-01-19T01:06:58;-2.50;99.90
9760;DHT22;4919;48.792;9.202;2023-01-19T01:09:43;-2.50;99.90
9760;DHT22;4919;48.792;9.202;2023-01-19T01:12:28;-2.50;99.90
9760;DHT22;4919;48.792;9.202;2023-01-19T01:15:14;-2.60;99.90
9760;DHT22;4919;48.792;9.202;2023-01-19T01:17:59;-2.60;99.90
9760;DHT22;4919;48.792;9.202;2023-01-19T01:20:44;-2.60;99.90
9760;DHT22;4919;48.792;9.202;2023-01-19T01:23:29;-2.60;99.90
9760;DHT22;4919;48.792;9.202;2023-01-19T01:26:13;-2.70;99.90
9760;DHT22;4919;48.792;9.202;2023-01-19T01:28:58;-2.80;99.90
9760;DHT22;4919;48.792;9.202;2023-01-19T01:31:43;-2.80;99.90
9760;DHT22;4919;48.792;9.202;2023-01-19T01:34:28;-2.90;99.90
9760;DHT22;4919;48.792;9.202;2023-01-19T01:37:13;-2.90;99.90
9760;DHT22;4919;48.792;9.202;2023-01-19T01:39:57;-2.90;99.90
9760;DHT22;4919;48.792;9.202;2023-01-19T01:42:43;-2.90;99.90
9760;DHT22;4919;48.792;9.202;2023-01-19T01:45:32;-2.90;99.90
9760;DHT22;4919;48.792;9.202;2023-01-19T01:48:28;-3.00;99.90
9760;DHT22;4919;48.792;9.202;2023-01-19T01:51:41;-3.00;99.90
9760;DHT22;4919;48.792;9.202;2023-01-19T01:54:29;-3.00;99.90
9760;DHT22;4919;48.792;9.202;2023-01-19T01:57:14;-3.00;99.90
9760;DHT22;4919;48.792;9.202;2023-01-19T01:59:59;-3.00;99.90
9760;DHT22;4919;48.792;9.202;2023-01-19T02:02:44;-3.10;99.90
9760;DHT22;4919;48.792;9.202;2023-01-19T02:05:32;-3.00;99.90
9760;DHT22;4919;48.792;9.202;2023-01-19T02:08:40;-3.00;99.90
9760;DHT22;4919;48.792;9.202;2023-01-19T02:11:27;-3.00;99.90
9760;DHT22;4919;48.792;9.202;2023-01-19T02:14:12;-3.10;99.90
9760;DHT22;4919;48.792;9.202;2023-01-19T02:16:56;-3.20;99.90
9760;DHT22;4919;48.792;9.202;2023-01-19T02:19:42;-3.20;99.90
9760;DHT22;4919;48.792;9.202;2023-01-19T02:22:33;-3.30;99.90
9760;DHT22;4919;48.792;9.202;2023-01-19T02:25:19;-3.30;99.90
9760;DHT22;4919;48.792;9.202;2023-01-19T02:28:04;-3.40;99.90
9760;DHT22;4919;48.792;9.202;2023-01-19T02:30:49;-3.40;99.90
9760;DHT22;4919;48.792;9.202;2023-01-19T02:33:34;-3.40;99.90
9760;DHT22;4919;48.792;9.202;2023-01-19T02:36:23;-3.50;99.90
9760;DHT22;4919;48.792;9.202;2023-01-19T02:39:10;-3.40;99.90
9760;DHT22;4919;48.792;9.202;2023-01-19T02:42:00;-3.50;99.90
9760;DHT22;4919;48.792;9.202;2023-01-19T02:44:48;-3.50;99.90
9760;DHT22;4919;48.792;9.202;2023-01-19T02:47:42;-3.50;99.90
9760;DHT22;4919;48.792;9.202;2023-01-19T02:50:48;-3.50;99.90
9760;DHT22;4919;48.792;9.202;2023-01-19T02:59:47;-3.50;99.90
9760;DHT22;4919;48.792;9.202;2023-01-19T03:05:54;-3.50;99.90
9760;DHT22;4919;48.792;9.202;2023-01-19T03:08:56;-3.50;99.90
9760;DHT22;4919;48.792;9.202;2023-01-19T03:11:49;-3.50;99.90
9760;DHT22;4919;48.792;9.202;2023-01-19T03:14:40;-3.50;99.90
9760;DHT22;4919;48.792;9.202;2023-01-19T03:17:28;-3.50;99.90
9760;DHT22;4919;48.792;9.202;2023-01-19T03:20:18;-3.60;99.90
9760;DHT22;4919;48.792;9.202;2023-01-19T03:23:09;-3.60;99.90
9760;DHT22;4919;48.792;9.202;2023-01-19T03:25:55;-3.70;99.90
9760;DHT22;4919;48.792;9.202;2023-01-19T03:28:43;-3.70;99.90
9760;DHT22;4919;48.792;9.202;2023-01-19T03:31:30;-3.80;99.90
9760;DHT22;4919;48.792;9.202;2023-01-19T03:34:18;-3.80;99.90
9760;DHT22;4919;48.792;9.202;2023-01-19T03:37:04;-3.80;99.90
9760;DHT22;4919;48.792;9.202;2023-01-19T03:39:50;-3.80;99.90
9760;DHT22;4919;48.792;9.202;2023-01-19T03:42:36;-3.70;99.90
9760;DHT22;4919;48.792;9.202;2023-01-19T03:45:22;-3.70;99.90
9760;DHT22;4919;48.792;9.202;2023-01-19T03:48:07;-3.70;99.90
9760;DHT22;4919;48.792;9.202;2023-01-19T03:50:52;-3.70;99.90
9760;DHT22;4919;48.792;9.202;2023-01-19T03:53:37;-3.70;99.90
9760;DHT22;4919;48.792;9.202;2023-01-19T03:56:24;-3.80;99.90
9760;DHT22;4919;48.792;9.202;2023-01-19T03:59:09;-3.70;99.90
9760;DHT22;4919;48.792;9.202;2023-01-19T04:01:54;-3.70;99.90
9760;DHT22;4919;48.792;9.202;2023-01-19T04:04:39;-3.80;99.90
9760;DHT22;4919;48.792;9.202;2023-01-19T04:07:24;-3.70;99.90
9760;DHT22;4919;48.792;9.202;2023-01-19T04:10:09;-3.80;99.90
9760;DHT22;4919;48.792;9.202;2023-01-19T04:12:58;-3.80;99.90
9760;DHT22;4919;48.792;9.202;2023-01-19T04:15:43;-3.80;99.90
9760;DHT22;4919;48.792;9.202;2023-01-19T04:18:29;-3.80;99.90
9760;DHT22;4919;48.792;9.202;2023-01-19T04:21:14;-3.80;99.90
9760;DHT22;4919;48.792;9.202;2023-01-19T04:23:59;-3.80;99.90
9760;DHT22;4919;48.792;9.202;2023-01-19T04:26:44;-3.90;99.90
9760;DHT22;4919;48.792;9.202;2023-01-19T04:29:29;-3.90;99.90
9760;DHT22;4919;48.792;9.202;2023-01-19T04:32:14;-3.90;99.90
9760;DHT22;4919;48.792;9.202;2023-01-19T04:34:59;-3.90;99.90
9760;DHT22;4919;48.792;9.202;2023-01-19T04:37:44;-3.80;99.90
9760;DHT22;4919;48.792;9.202;2023-01-19T04:40:28;-3.90;99.90
9760;DHT22;4919;48.792;9.202;2023-01-19T04:43:13;-3.90;99.90
9760;DHT22;4919;48.792;9.202;2023-01-19T04:45:58;-3.90;99.90
9760;DHT22;4919;48.792;9.202;2023-01-19T04:48:43;-3.90;99.90
9760;DHT22;4919;48.792;9.202;2023-01-19T04:51:28;-4.00;99.90
9760;DHT22;4919;48.792;9.202;2023-01-19T04:54:13;-4.00;99.90
9760;DHT22;4919;48.792;9.202;2023-01-19T04:56:58;-4.10;99.90
9760;DHT22;4919;48.792;9.202;2023-01-19T04:59:43;-4.10;99.90
9760;DHT22;4919;48.792;9.202;2023-01-19T05:02:28;-4.10;99.90
9760;DHT22;4919;48.792;9.202;2023-01-19T05:05:12;-4.10;99.90
9760;DHT22;4919;48.792;9.202;2023-01-19T05:07:57;-4.20;99.90
9760;DHT22;4919;48.792;9.202;2023-01-19T05:10:42;-4.20;99.90
9760;DHT22;4919;48.792;9.202;2023-01-19T05:13:27;-4.30;99.90
9760;DHT22;4919;48.792;9.202;2023-01-19T05:16:12;-4.30;99.90
9760;DHT22;4919;48.792;9.202;2023-01-19T05:18:57;-4.30;99.90
9760;DHT22;4919;48.792;9.202;2023-01-19T05:21:41;-4.30;99.90
9760;DHT22;4919;48.792;9.202;2023-01-19T05:24:26;-4.30;99.90
9760;DHT22;4919;48.792;9.202;2023-01-19T05:27:11;-4.30;99.90
9760;DHT22;4919;48.792;9.202;2023-01-19T05:29:56;-4.30;99.90
9760;DHT22;4919;48.792;9.202;2023-01-19T05:32:41;-4.40;99.90
9760;DHT22;4919;48.792;9.202;2023-01-19T05:35:26;-4.30;99.90
9760;DHT22;4919;48.792;9.202;2023-01-19T05:38:11;-4.40;99.90
9760;DHT22;4919;48.792;9.202;2023-01-19T05:40:57;-4.40;99.90
9760;DHT22;4919;48.792;9.202;2023-01-19T05:43:41;-4.40;99.90
9760;DHT22;4919;48.792;9.202;2023-01-19T05:46:26;-4.50;99.90
9760;DHT22;4919;48.792;9.202;2023-01-19T05:49:11;-4.40;99.90
9760;DHT22;4919;48.792;9.202;2023-01-19T05:51:56;-4.50;99.90
9760;DHT22;4919;48.792;9.202;2023-01-19T05:54:41;-4.60;99.90
9760;DHT22;4919;48.792;9.202;2023-01-19T05:57:26;-4.50;99.90
9760;DHT22;4919;48.792;9.202;2023-01-19T06:00:11;-4.50;99.90
9760;DHT22;4919;48.792;9.202;2023-01-19T06:02:56;-4.50;99.90
9760;DHT22;4919;48.792;9.202;2023-01-19T06:05:41;-4.50;99.90
9760;DHT22;4919;48.792;9.202;2023-01-19T06:08:27;-4.40;99.90
9760;DHT22;4919;48.792;9.202;2023-01-19T06:11:12;-4.40;99.90
9760;DHT22;4919;48.792;9.202;2023-01-19T06:13:57;-4.30;99.90
9760;DHT22;4919;48.792;9.202;2023-01-19T06:16:41;-4.30;99.90
9760;DHT22;4919;48.792;9.202;2023-01-19T06:19:26;-4.30;99.90
9760;DHT22;4919;48.792;9.202;2023-01-19T06:22:11;-4.30;99.90
9760;DHT22;4919;48.792;9.202;2023-01-19T06:24:56;-4.20;99.90
9760;DHT22;4919;48.792;9.202;2023-01-19T06:27:44;-4.30;99.90
9760;DHT22;4919;48.792;9.202;2023-01-19T06:30:29;-4.30;99.90
9760;DHT22;4919;48.792;9.202;2023-01-19T06:33:13;-4.30;99.90
9760;DHT22;4919;48.792;9.202;2023-01-19T06:35:58;-4.20;99.90
9760;DHT22;4919;48.792;9.202;2023-01-19T06:38:43;-4.30;99.90
9760;DHT22;4919;48.792;9.202;2023-01-19T06:41:28;-4.30;99.90
9760;DHT22;4919;48.792;9.202;2023-01-19T06:44:13;-4.40;99.90
9760;DHT22;4919;48.792;9.202;2023-01-19T06:46:58;-4.40;99.90
9760;DHT22;4919;48.792;9.202;2023-01-19T06:49:43;-4.50;99.90
9760;DHT22;4919;48.792;9.202;2023-01-19T06:52:27;-4.50;99.90
9760;DHT22;4919;48.792;9.202;2023-01-19T06:55:12;-4.50;99.90
9760;DHT22;4919;48.792;9.202;2023-01-19T06:57:58;-4.50;99.90
9760;DHT22;4919;48.792;9.202;2023-01-19T07:00:43;-4.50;99.90
9760;DHT22;4919;48.792;9.202;2023-01-19T07:03:27;-4.60;99.90
9760;DHT22;4919;48.792;9.202;2023-01-19T07:06:12;-4.60;99.90
9760;DHT22;4919;48.792;9.202;2023-01-19T07:08:57;-4.60;99.90
9760;DHT22;4919;48.792;9.202;2023-01-19T07:11:42;-4.50;99.90
9760;DHT22;4919;48.792;9.202;2023-01-19T07:14:27;-4.50;99.90
9760;DHT22;4919;48.792;9.202;2023-01-19T07:17:12;-4.50;99.90
9760;DHT22;4919;48.792;9.202;2023-01-19T07:19:57;-4.60;99.90
9760;DHT22;4919;48.792;9.202;2023-01-19T07:22:42;-4.60;99.90
9760;DHT22;4919;48.792;9.202;2023-01-19T07:25:27;-4.60;99.90
9760;DHT22;4919;48.792;9.202;2023-01-19T07:28:12;-4.60;99.90
9760;DHT22;4919;48.792;9.202;2023-01-19T07:30:57;-4.50;99.90
9760;DHT22;4919;48.792;9.202;2023-01-19T07:33:41;-4.50;99.90
9760;DHT22;4919;48.792;9.202;2023-01-19T07:36:26;-4.50;99.90
9760;DHT22;4919;48.792;9.202;2023-01-19T07:39:11;-4.50;99.90
9760;DHT22;4919;48.792;9.202;2023-01-19T07:41:56;-4.40;99.90
9760;DHT22;4919;48.792;9.202;2023-01-19T07:44:41;-4.40;99.90
9760;DHT22;4919;48.792;9.202;2023-01-19T07:47:26;-4.30;99.90
9760;DHT22;4919;48.792;9.202;2023-01-19T07:50:11;-4.30;99.90
9760;DHT22;4919;48.792;9.202;2023-01-19T07:52:56;-4.30;99.90
9760;DHT22;4919;48.792;9.202;2023-01-19T07:55:41;-4.20;99.90
9760;DHT22;4919;48.792;9.202;2023-01-19T07:58:27;-4.20;99.90
9760;DHT22;4919;48.792;9.202;2023-01-19T08:01:12;-4.10;99.90
9760;DHT22;4919;48.792;9.202;2023-01-19T08:03:57;-4.00;99.90
9760;DHT22;4919;48.792;9.202;2023-01-19T08:06:43;-3.90;99.90
9760;DHT22;4919;48.792;9.202;2023-01-19T08:09:29;-3.90;99.90
9760;DHT22;4919;48.792;9.202;2023-01-19T08:12:13;-3.80;99.90
9760;DHT22;4919;48.792;9.202;2023-01-19T08:14:58;-3.70;99.90
9760;DHT22;4919;48.792;9.202;2023-01-19T08:17:43;-3.70;99.90
9760;DHT22;4919;48.792;9.202;2023-01-19T08:20:28;-3.60;99.90
9760;DHT22;4919;48.792;9.202;2023-01-19T08:23:13;-3.60;99.90
9760;DHT22;4919;48.792;9.202;2023-01-19T08:25:58;-3.50;99.90
9760;DHT22;4919;48.792;9.202;2023-01-19T08:28:43;-3.40;99.90
9760;DHT22;4919;48.792;9.202;2023-01-19T08:31:28;-3.30;99.90
9760;DHT22;4919;48.792;9.202;2023-01-19T08:34:13;-3.20;99.90
9760;DHT22;4919;48.792;9.202;2023-01-19T08:36:58;-3.20;99.90
9760;DHT22;4919;48.792;9.202;2023-01-19T08:39:43;-3.20;99.90
9760;DHT22;4919;48.792;9.202;2023-01-19T08:42:27;-3.10;99.90
9760;DHT22;4919;48.792;9.202;2023-01-19T08:45:12;-3.00;99.90
9760;DHT22;4919;48.792;9.202;2023-01-19T08:47:58;-3.00;99.90
9760;DHT22;4919;48.792;9.202;2023-01-19T08:50:45;-2.90;99.90
9760;DHT22;4919;48.792;9.202;2023-01-19T08:53:30;-2.80;99.90
9760;DHT22;4919;48.792;9.202;2023-01-19T08:56:15;-2.70;99.90
9760;DHT22;4919;48.792;9.202;2023-01-19T08:59:00;-2.50;99.90
9760;DHT22;4919;48.792;9.202;2023-01-19T09:01:45;-2.30;99.90
9760;DHT22;4919;48.792;9.202;2023-01-19T09:04:29;-2.20;99.90
9760;DHT22;4919;48.792;9.202;2023-01-19T09:07:14;-2.20;99.90
9760;DHT22;4919;48.792;9.202;2023-01-19T09:09:59;-2.10;99.90
9760;DHT22;4919;48.792;9.202;2023-01-19T09:12:44;-1.90;99.90
9760;DHT22;4919;48.792;9.202;2023-01-19T09:15:30;-1.80;99.90
9760;DHT22;4919;48.792;9.202;2023-01-19T09:18:19;-1.70;99.90
9760;DHT22;4919;48.792;9.202;2023-01-19T09:21:04;-1.70;99.90
9760;DHT22;4919;48.792;9.202;2023-01-19T09:23:49;-1.60;99.90
9760;DHT22;4919;48.792;9.202;2023-01-19T09:26:34;-1.50;99.90
9760;DHT22;4919;48.792;9.202;2023-01-19T09:29:19;-1.30;99.90
9760;DHT22;4919;48.792;9.202;2023-01-19T09:32:04;-1.20;99.90
9760;DHT22;4919;48.792;9.202;2023-01-19T09:34:49;-1.10;99.90
9760;DHT22;4919;48.792;9.202;2023-01-19T09:37:34;-1.00;99.90
9760;DHT22;4919;48.792;9.202;2023-01-19T09:40:19;-0.90;99.90
9760;DHT22;4919;48.792;9.202;2023-01-19T09:43:21;-0.90;99.90
9760;DHT22;4919;48.792;9.202;2023-01-19T09:46:20;-0.90;99.90
9760;DHT22;4919;48.792;9.202;2023-01-19T09:49:25;-0.90;99.90
9760;DHT22;4919;48.792;9.202;2023-01-19T09:52:13;-0.60;99.90
9760;DHT22;4919;48.792;9.202;2023-01-19T09:54:58;-0.30;99.90
9760;DHT22;4919;48.792;9.202;2023-01-19T09:57:43;-0.40;99.90
9760;DHT22;4919;48.792;9.202;2023-01-19T10:00:29;-0.40;99.90
9760;DHT22;4919;48.792;9.202;2023-01-19T10:03:15;-0.30;99.90
9760;DHT22;4919;48.792;9.202;2023-01-19T10:06:01;-0.30;99.90
9760;DHT22;4919;48.792;9.202;2023-01-19T10:09:04;0.00;99.90
9760;DHT22;4919;48.792;9.202;2023-01-19T10:12:07;0.30;99.90
9760;DHT22;4919;48.792;9.202;2023-01-19T10:14:59;0.30;99.90
9760;DHT22;4919;48.792;9.202;2023-01-19T10:21:15;0.70;99.90
9760;DHT22;4919;48.792;9.202;2023-01-19T10:24:05;0.60;99.90
9760;DHT22;4919;48.792;9.202;2023-01-19T10:26:55;0.60;99.90
9760;DHT22;4919;48.792;9.202;2023-01-19T10:29:40;0.50;99.90
9760;DHT22;4919;48.792;9.202;2023-01-19T10:32:30;0.50;99.90
9760;DHT22;4919;48.792;9.202;2023-01-19T10:35:19;0.60;99.90
9760;DHT22;4919;48.792;9.202;2023-01-19T10:38:04;0.40;99.90
9760;DHT22;4919;48.792;9.202;2023-01-19T10:40:57;0.60;99.90
9760;DHT22;4919;48.792;9.202;2023-01-19T10:43:44;0.70;99.90
9760;DHT22;4919;48.792;9.202;2023-01-19T10:49:34;0.70;99.90
9760;DHT22;4919;48.792;9.202;2023-01-19T10:52:23;0.80;99.90
9760;DHT22;4919;48.792;9.202;2023-01-19T10:58:36;0.60;99.90
9760;DHT22;4919;48.792;9.202;2023-01-19T11:01:25;0.90;99.90
9760;DHT22;4919;48.792;9.202;2023-01-19T11:04:26;0.90;99.90
9760;DHT22;4919;48.792;9.202;2023-01-19T11:07:20;1.10;99.90
9760;DHT22;4919;48.792;9.202;2023-01-19T11:10:27;0.60;99.90
9760;DHT22;4919;48.792;9.202;2023-01-19T11:13:12;0.70;99.90
9760;DHT22;4919;48.792;9.202;2023-01-19T11:16:14;1.20;99.90
9760;DHT22;4919;48.792;9.202;2023-01-19T11:19:00;1.50;99.90
9760;DHT22;4919;48.792;9.202;2023-01-19T11:21:45;1.50;99.90
9760;DHT22;4919;48.792;9.202;2023-01-19T11:24:30;1.40;99.90
9760;DHT22;4919;48.792;9.202;2023-01-19T11:27:16;1.60;99.90
9760;DHT22;4919;48.792;9.202;2023-01-19T11:30:19;1.70;99.90
9760;DHT22;4919;48.792;9.202;2023-01-19T11:33:31;1.60;99.90
9760;DHT22;4919;48.792;9.202;2023-01-19T11:36:17;1.50;99.90
9760;DHT22;4919;48.792;9.202;2023-01-19T11:39:21;1.80;99.90
9760;DHT22;4919;48.792;9.202;2023-01-19T11:42:08;2.10;99.90
9760;DHT22;4919;48.792;9.202;2023-01-19T11:45:02;2.20;99.90
9760;DHT22;4919;48.792;9.202;2023-01-19T11:47:48;1.80;99.90
9760;DHT22;4919;48.792;9.202;2023-01-19T11:50:39;2.00;99.90
9760;DHT22;4919;48.792;9.202;2023-01-19T11:53:26;2.20;99.90
9760;DHT22;4919;48.792;9.202;2023-01-19T11:56:13;2.20;99.90
9760;DHT22;4919;48.792;9.202;2023-01-19T11:58:58;2.00;99.90
9760;DHT22;4919;48.792;9.202;2023-01-19T12:01:48;2.00;99.90
9760;DHT22;4919;48.792;9.202;2023-01-19T12:04:39;2.30;99.90
9760;DHT22;4919;48.792;9.202;2023-01-19T12:07:29;2.60;99.90
9760;DHT22;4919;48.792;9.202;2023-01-19T12:10:24;2.70;99.90
9760;DHT22;4919;48.792;9.202;2023-01-19T12:13:23;2.30;99.90
9760;DHT22;4919;48.792;9.202;2023-01-19T12:16:21;2.30;99.90
9760;DHT22;4919;48.792;9.202;2023-01-19T12:19:15;2.00;99.90
9760;DHT22;4919;48.792;9.202;2023-01-19T12:22:01;1.90;99.90
9760;DHT22;4919;48.792;9.202;2023-01-19T12:25:42;2.00;99.90
9760;DHT22;4919;48.792;9.202;2023-01-19T12:28:20;2.30;99.90
9760;DHT22;4919;48.792;9.202;2023-01-19T12:31:08;2.80;99.90
9760;DHT22;4919;48.792;9.202;2023-01-19T12:33:53;3.00;99.90
9760;DHT22;4919;48.792;9.202;2023-01-19T12:36:38;3.00;99.90
9760;DHT22;4919;48.792;9.202;2023-01-19T12:39:23;2.90;99.90
9760;DHT22;4919;48.792;9.202;2023-01-19T12:42:13;2.50;99.90
9760;DHT22;4919;48.792;9.202;2023-01-19T12:45:06;2.60;99.90
9760;DHT22;4919;48.792;9.202;2023-01-19T12:47:53;2.60;99.90
9760;DHT22;4919;48.792;9.202;2023-01-19T12:50:38;2.70;99.90
9760;DHT22;4919;48.792;9.202;2023-01-19T12:53:23;2.40;99.90
9760;DHT22;4919;48.792;9.202;2023-01-19T12:56:08;2.00;99.90
9760;DHT22;4919;48.792;9.202;2023-01-19T12:58:53;2.10;99.90
9760;DHT22;4919;48.792;9.202;2023-01-19T13:01:37;2.10;99.90
9760;DHT22;4919;48.792;9.202;2023-01-19T13:04:32;2.00;99.90
9760;DHT22;4919;48.792;9.202;2023-01-19T13:07:17;1.90;99.90
9760;DHT22;4919;48.792;9.202;2023-01-19T13:13:27;1.80;99.90
9760;DHT22;4919;48.792;9.202;2023-01-19T13:21:51;1.80;99.90
9760;DHT22;4919;48.792;9.202;2023-01-19T13:25:30;1.60;99.90
9760;DHT22;4919;48.792;9.202;2023-01-19T13:28:09;1.50;99.90
9760;DHT22;4919;48.792;9.202;2023-01-19T13:30:56;1.50;99.90
9760;DHT22;4919;48.792;9.202;2023-01-19T13:33:48;1.30;99.90
9760;DHT22;4919;48.792;9.202;2023-01-19T13:36:36;1.40;99.90
9760;DHT22;4919;48.792;9.202;2023-01-19T13:39:32;1.40;99.90
9760;DHT22;4919;48.792;9.202;2023-01-19T13:45:16;1.50;99.90
9760;DHT22;4919;48.792;9.202;2023-01-19T13:48:07;1.40;99.90
9760;DHT22;4919;48.792;9.202;2023-01-19T13:50:57;1.40;99.90
9760;DHT22;4919;48.792;9.202;2023-01-19T13:53:56;1.30;99.90
9760;DHT22;4919;48.792;9.202;2023-01-19T13:56:46;1.20;99.90
9760;DHT22;4919;48.792;9.202;2023-01-19T13:59:31;1.10;99.90
9760;DHT22;4919;48.792;9.202;2023-01-19T14:02:16;1.10;99.90
9760;DHT22;4919;48.792;9.202;2023-01-19T14:05:30;1.00;99.90
9760;DHT22;4919;48.792;9.202;2023-01-19T14:08:15;0.90;99.90
9760;DHT22;4919;48.792;9.202;2023-01-19T14:11:01;0.90;99.90
9760;DHT22;4919;48.792;9.202;2023-01-19T14:13:45;0.80;99.90
9760;DHT22;4919;48.792;9.202;2023-01-19T14:16:30;0.80;99.90
9760;DHT22;4919;48.792;9.202;2023-01-19T14:19:15;0.70;99.90
9760;DHT22;4919;48.792;9.202;2023-01-19T14:22:02;0.70;99.90
9760;DHT22;4919;48.792;9.202;2023-01-19T14:24:47;0.70;99.90
9760;DHT22;4919;48.792;9.202;2023-01-19T14:27:31;0.60;99.90
9760;DHT22;4919;48.792;9.202;2023-01-19T14:30:21;0.60;99.90
9760;DHT22;4919;48.792;9.202;2023-01-19T14:36:35;0.60;99.90
9760;DHT22;4919;48.792;9.202;2023-01-19T14:39:23;0.60;99.90
9760;DHT22;4919;48.792;9.202;2023-01-19T14:42:13;0.60;99.90
9760;DHT22;4919;48.792;9.202;2023-01-19T14:45:01;0.50;99.90
9760;DHT22;4919;48.792;9.202;2023-01-19T14:48:00;0.40;99.90
9760;DHT22;4919;48.792;9.202;2023-01-19T14:50:45;0.40;99.90
9760;DHT22;4919;48.792;9.202;2023-01-19T14:53:36;0.40;99.90
9760;DHT22;4919;48.792;9.202;2023-01-19T14:56:29;0.30;99.90
9760;DHT22;4919;48.792;9.202;2023-01-19T14:59:14;0.30;99.90
9760;DHT22;4919;48.792;9.202;2023-01-19T15:01:58;0.20;99.90
9760;DHT22;4919;48.792;9.202;2023-01-19T15:04:44;0.10;99.90
9760;DHT22;4919;48.792;9.202;2023-01-19T15:07:30;0.10;99.90
9760;DHT22;4919;48.792;9.202;2023-01-19T15:10:20;0.20;99.90
9760;DHT22;4919;48.792;9.202;2023-01-19T15:13:22;0.10;99.90
9760;DHT22;4919;48.792;9.202;2023-01-19T15:16:07;0.10;99.90
9760;DHT22;4919;48.792;9.202;2023-01-19T15:18:52;0.00;99.90
9760;DHT22;4919;48.792;9.202;2023-01-19T15:21:37;0.00;99.90
9760;DHT22;4919;48.792;9.202;2023-01-19T15:24:22;-0.10;99.90
9760;DHT22;4919;48.792;9.202;2023-01-19T15:27:09;-0.10;99.90
9760;DHT22;4919;48.792;9.202;2023-01-19T15:29:54;-0.10;99.90
9760;DHT22;4919;48.792;9.202;2023-01-19T15:32:39;-0.10;99.90
9760;DHT22;4919;48.792;9.202;2023-01-19T15:35:24;-0.10;99.90
9760;DHT22;4919;48.792;9.202;2023-01-19T15:38:09;-0.10;99.90
9760;DHT22;4919;48.792;9.202;2023-01-19T15:40:54;-0.10;99.90
9760;DHT22;4919;48.792;9.202;2023-01-19T15:43:39;-0.10;99.90
9760;DHT22;4919;48.792;9.202;2023-01-19T15:46:24;0.00;99.90
9760;DHT22;4919;48.792;9.202;2023-01-19T15:49:09;0.00;99.90
9760;DHT22;4919;48.792;9.202;2023-01-19T15:51:54;0.00;99.90
9760;DHT22;4919;48.792;9.202;2023-01-19T15:54:39;0.00;99.90
9760;DHT22;4919;48.792;9.202;2023-01-19T15:57:23;0.00;99.90
9760;DHT22;4919;48.792;9.202;2023-01-19T16:00:09;0.00;99.90
9760;DHT22;4919;48.792;9.202;2023-01-19T16:02:54;0.10;99.90
9760;DHT22;4919;48.792;9.202;2023-01-19T16:05:39;0.10;99.90
9760;DHT22;4919;48.792;9.202;2023-01-19T16:08:24;0.00;99.90
9760;DHT22;4919;48.792;9.202;2023-01-19T16:11:11;-0.10;99.90
9760;DHT22;4919;48.792;9.202;2023-01-19T16:13:56;-0.10;99.90
9760;DHT22;4919;48.792;9.202;2023-01-19T16:16:41;-0.20;99.90
9760;DHT22;4919;48.792;9.202;2023-01-19T16:19:26;-0.20;99.90
9760;DHT22;4919;48.792;9.202;2023-01-19T16:22:11;-0.30;99.90
9760;DHT22;4919;48.792;9.202;2023-01-19T16:24:55;-0.30;99.90
9760;DHT22;4919;48.792;9.202;2023-01-19T16:27:40;-0.30;99.90
9760;DHT22;4919;48.792;9.202;2023-01-19T16:30:25;-0.40;99.90
9760;DHT22;4919;48.792;9.202;2023-01-19T16:33:10;-0.40;99.90
9760;DHT22;4919;48.792;9.202;2023-01-19T16:35:55;-0.50;99.90
9760;DHT22;4919;48.792;9.202;2023-01-19T16:38:40;-0.40;99.90
9760;DHT22;4919;48.792;9.202;2023-01-19T16:41:25;-0.40;99.90
9760;DHT22;4919;48.792;9.202;2023-01-19T16:44:11;-0.40;99.90
9760;DHT22;4919;48.792;9.202;2023-01-19T16:46:56;-0.30;99.90
9760;DHT22;4919;48.792;9.202;2023-01-19T16:49:41;-0.20;99.90
9760;DHT22;4919;48.792;9.202;2023-01-19T16:52:26;-0.20;99.90
9760;DHT22;4919;48.792;9.202;2023-01-19T16:55:11;-0.20;99.90
9760;DHT22;4919;48.792;9.202;2023-01-19T16:57:56;-0.10;99.90
9760;DHT22;4919;48.792;9.202;2023-01-19T17:00:41;-0.20;99.90
9760;DHT22;4919;48.792;9.202;2023-01-19T17:03:25;-0.10;99.90
9760;DHT22;4919;48.792;9.202;2023-01-19T17:06:12;-0.10;99.90
9760;DHT22;4919;48.792;9.202;2023-01-19T17:08:57;-0.10;99.90
9760;DHT22;4919;48.792;9.202;2023-01-19T17:11:42;-0.10;99.90
9760;DHT22;4919;48.792;9.202;2023-01-19T17:14:27;-0.10;99.90
9760;DHT22;4919;48.792;9.202;2023-01-19T17:17:13;-0.10;99.90
9760;DHT22;4919;48.792;9.202;2023-01-19T17:19:58;0.00;99.90
9760;DHT22;4919;48.792;9.202;2023-01-19T17:22:43;0.00;99.90
9760;DHT22;4919;48.792;9.202;2023-01-19T17:25:28;0.00;99.90
9760;DHT22;4919;48.792;9.202;2023-01-19T17:28:13;0.00;99.90
9760;DHT22;4919;48.792;9.202;2023-01-19T17:31:12;0.00;99.90
9760;DHT22;4919;48.792;9.202;2023-01-19T17:33:58;0.00;99.90
9760;DHT22;4919;48.792;9.202;2023-01-19T17:36:43;0.00;99.90
9760;DHT22;4919;48.792;9.202;2023-01-19T17:39:28;0.00;99.90
9760;DHT22;4919;48.792;9.202;2023-01-19T17:42:12;-0.10;99.90
9760;DHT22;4919;48.792;9.202;2023-01-19T17:44:57;-0.20;99.90
9760;DHT22;4919;48.792;9.202;2023-01-19T17:47:42;-0.10;99.90
9760;DHT22;4919;48.792;9.202;2023-01-19T17:50:27;-0.20;99.90
9760;DHT22;4919;48.792;9.202;2023-01-19T17:53:12;-0.10;99.90
9760;DHT22;4919;48.792;9.202;2023-01-19T17:56:11;-0.10;99.90
9760;DHT22;4919;48.792;9.202;2023-01-19T17:58:57;0.00;99.90
9760;DHT22;4919;48.792;9.202;2023-01-19T18:01:42;0.00;99.90
9760;DHT22;4919;48.792;9.202;2023-01-19T18:04:27;0.00;99.90
9760;DHT22;4919;48.792;9.202;2023-01-19T18:07:11;0.00;99.90
9760;DHT22;4919;48.792;9.202;2023-01-19T18:09:56;0.00;99.90
9760;DHT22;4919;48.792;9.202;2023-01-19T18:12:41;0.00;99.90
9760;DHT22;4919;48.792;9.202;2023-01-19T18:15:26;0.00;99.90
9760;DHT22;4919;48.792;9.202;2023-01-19T18:18:11;0.10;99.90
9760;DHT22;4919;48.792;9.202;2023-01-19T18:21:05;0.10;99.90
9760;DHT22;4919;48.792;9.202;2023-01-19T18:23:50;0.10;99.90
9760;DHT22;4919;48.792;9.202;2023-01-19T18:26:35;0.10;99.90
9760;DHT22;4919;48.792;9.202;2023-01-19T18:29:20;0.20;99.90
9760;DHT22;4919;48.792;9.202;2023-01-19T18:32:05;0.20;99.90
9760;DHT22;4919;48.792;9.202;2023-01-19T18:34:50;0.20;99.90
9760;DHT22;4919;48.792;9.202;2023-01-19T18:37:35;0.20;99.90
9760;DHT22;4919;48.792;9.202;2023-01-19T18:40:20;0.20;99.90
9760;DHT22;4919;48.792;9.202;2023-01-19T18:43:06;0.20;99.90
9760;DHT22;4919;48.792;9.202;2023-01-19T18:45:51;0.20;99.90
9760;DHT22;4919;48.792;9.202;2023-01-19T18:48:37;0.30;99.90
9760;DHT22;4919;48.792;9.202;2023-01-19T18:51:22;0.30;99.90